createdAt,value
2023-02-09T00:01:16.694Z,52.08
2023-02-09T00:03:19.314Z,53.15
2023-02-09T00:05:21.910Z,52.97
2023-02-09T00:07:24.597Z,45.08
2023-02-09T00:09:27.163Z,49.88
2023-02-09T00:11:51.504Z,51.20
2023-02-09T00:13:54.018Z,48.85
2023-02-09T00:16:01.477Z,50.22
2023-02-09T00:18:04.157Z,51.40
2023-02-09T00:20:08.271Z,47.05
2023-02-09T00:22:10.831Z,48.42
2023-02-09T00:24:14.045Z,47.85
2023-02-09T00:26:16.704Z,55.92
2023-02-09T00:28:19.685Z,46.90
2023-02-09T00:30:22.549Z,55.13
2023-02-09T00:32:26.487Z,46.50
2023-02-09T00:34:29.040Z,46.25
2023-02-09T00:36:31.942Z,45.25
2023-02-09T00:38:35.344Z,42.00
2023-02-09T00:40:38.217Z,44.30
2023-02-09T00:42:40.759Z,41.75
2023-02-09T00:44:43.277Z,47.15
2023-02-09T00:46:45.870Z,43.65
2023-02-09T00:48:49.741Z,44.72
2023-02-09T00:50:53.073Z,41.25
2023-02-09T00:52:56.060Z,41.17
2023-02-09T00:54:58.599Z,46.58
2023-02-09T00:57:05.228Z,46.83
2023-02-09T00:59:07.876Z,42.28
2023-02-09T01:01:13.307Z,42.22
2023-02-09T01:03:15.887Z,47.65
2023-02-09T01:05:20.023Z,46.03
2023-02-09T01:07:22.650Z,48.95
2023-02-09T01:09:25.909Z,47.13
2023-02-09T01:11:29.832Z,43.17
2023-02-09T01:13:32.405Z,44.83
2023-02-09T01:15:35.057Z,43.83
2023-02-09T01:17:38.468Z,40.97
2023-02-09T01:19:41.051Z,42.78
2023-02-09T01:21:47.728Z,44.67
2023-02-09T01:23:50.797Z,47.65
2023-02-09T01:26:02.345Z,46.88
2023-02-09T01:28:04.967Z,44.67
2023-02-09T01:30:08.478Z,49.13
2023-02-09T01:32:11.154Z,44.50
2023-02-09T01:34:15.915Z,45.22
2023-02-09T01:36:18.570Z,52.65
2023-02-09T01:38:22.484Z,45.55
2023-02-09T01:40:25.263Z,46.17
2023-02-09T01:42:28.016Z,50.88
2023-02-09T01:45:13.498Z,48.03
2023-02-09T01:47:17.304Z,47.78
2023-02-09T01:49:22.537Z,51.40
2023-02-09T01:51:26.534Z,47.65
2023-02-09T01:53:30.529Z,53.97
2023-02-09T01:55:37.934Z,48.38
2023-02-09T01:57:45.284Z,52.75
2023-02-09T01:59:53.001Z,49.17
2023-02-09T02:01:55.754Z,44.05
2023-02-09T02:03:58.301Z,49.92
2023-02-09T02:06:05.949Z,46.53
2023-02-09T02:08:13.279Z,48.65
2023-02-09T02:10:17.552Z,45.65
2023-02-09T02:12:20.554Z,47.88
2023-02-09T02:14:30.867Z,50.75
2023-02-09T02:16:44.791Z,46.88
2023-02-09T02:19:02.709Z,41.47
2023-02-09T02:21:51.247Z,44.67
2023-02-09T02:24:08.523Z,47.97
2023-02-09T02:26:35.530Z,45.63
2023-02-09T02:28:46.033Z,53.33
2023-02-09T02:31:05.482Z,48.60
2023-02-09T02:33:20.946Z,47.65
2023-02-09T02:35:34.420Z,43.60
2023-02-09T02:37:49.733Z,50.15
2023-02-09T02:40:00.179Z,47.47
2023-02-09T02:42:27.886Z,45.10
2023-02-09T02:44:32.942Z,47.38
2023-02-09T02:46:41.993Z,44.92
2023-02-09T02:48:53.849Z,49.00
2023-02-09T02:51:00.954Z,49.90
2023-02-09T02:53:07.589Z,46.50
2023-02-09T02:55:14.946Z,45.85
2023-02-09T02:57:21.508Z,46.03
2023-02-09T02:59:29.244Z,45.83
2023-02-09T03:01:36.101Z,52.28
2023-02-09T03:03:42.011Z,51.40
2023-02-09T03:05:46.643Z,47.25
2023-02-09T03:07:49.376Z,43.78
2023-02-09T03:09:53.518Z,50.78
2023-02-09T03:11:59.742Z,46.63
2023-02-09T03:14:22.225Z,50.30
2023-02-09T03:16:32.974Z,48.80
2023-02-09T03:18:44.677Z,45.55
2023-02-09T03:22:58.296Z,46.80
2023-02-09T03:25:06.270Z,47.67
2023-02-09T03:27:15.550Z,48.03
2023-02-09T03:29:20.839Z,50.95
2023-02-09T03:31:24.159Z,53.58
2023-02-09T03:33:29.486Z,50.28
2023-02-09T03:35:38.019Z,45.70
2023-02-09T03:37:41.960Z,47.17
2023-02-09T03:39:44.563Z,48.15
2023-02-09T03:41:47.173Z,47.78
2023-02-09T03:44:07.347Z,50.83
2023-02-09T03:46:10.406Z,51.88
2023-02-09T03:48:15.861Z,51.38
2023-02-09T03:50:18.817Z,49.97
2023-02-09T03:52:21.433Z,52.20
2023-02-09T03:54:25.324Z,52.97
2023-02-09T03:56:45.587Z,48.30
2023-02-09T03:58:48.173Z,48.47
2023-02-09T04:00:50.786Z,48.65
2023-02-09T04:02:53.419Z,52.13
2023-02-09T04:04:56.101Z,51.60
2023-02-09T04:06:58.855Z,45.25
2023-02-09T04:09:02.748Z,54.55
2023-02-09T04:11:06.667Z,47.45
2023-02-09T04:13:09.259Z,46.58
2023-02-09T04:15:11.899Z,44.72
2023-02-09T04:17:14.498Z,50.05
2023-02-09T04:19:17.751Z,52.47
2023-02-09T04:21:20.379Z,47.45
2023-02-09T04:23:22.915Z,50.35
2023-02-09T04:25:25.496Z,54.50
2023-02-09T04:27:29.457Z,51.72
2023-02-09T04:29:32.206Z,52.72
2023-02-09T04:31:35.962Z,52.67
2023-02-09T04:33:39.048Z,53.25
2023-02-09T04:35:43.874Z,49.65
2023-02-09T04:37:46.478Z,57.05
2023-02-09T04:39:49.033Z,50.92
2023-02-09T04:41:51.557Z,49.88
2023-02-09T04:43:55.435Z,48.25
2023-02-09T04:45:58.252Z,48.63
2023-02-09T04:48:00.853Z,49.55
2023-02-09T04:50:03.430Z,46.58
2023-02-09T04:52:05.980Z,51.28
2023-02-09T04:54:08.511Z,58.03
2023-02-09T04:56:15.365Z,55.55
2023-02-09T04:58:38.439Z,52.38
2023-02-09T05:00:42.396Z,46.53
2023-02-09T05:02:44.983Z,49.95
2023-02-09T05:04:47.624Z,57.10
2023-02-09T05:06:50.343Z,53.65
2023-02-09T05:08:52.961Z,50.08
2023-02-09T05:10:56.307Z,56.15
2023-02-09T05:12:58.937Z,58.42
2023-02-09T05:15:01.575Z,49.88
2023-02-09T05:17:05.596Z,65.75
2023-02-09T05:19:08.166Z,48.63
2023-02-09T05:21:11.051Z,55.92
2023-02-09T05:23:14.603Z,58.05
2023-02-09T05:25:17.299Z,64.68
2023-02-09T05:27:20.155Z,55.88
2023-02-09T05:29:22.770Z,60.75
2023-02-09T05:31:25.656Z,50.25
2023-02-09T05:33:29.841Z,54.38
2023-02-09T05:35:32.417Z,50.95
2023-02-09T05:37:35.209Z,52.60
2023-02-09T05:39:37.811Z,53.95
2023-02-09T05:41:54.546Z,55.10
2023-02-09T05:43:57.184Z,48.20
2023-02-09T05:45:59.793Z,52.40
2023-02-09T05:48:02.415Z,52.20
2023-02-09T05:50:06.987Z,53.90
2023-02-09T05:52:10.446Z,56.50
2023-02-09T05:54:13.044Z,58.08
2023-02-09T05:56:15.591Z,62.67
2023-02-09T05:58:18.149Z,58.47
2023-02-09T06:00:21.955Z,54.38
2023-02-09T06:02:24.606Z,54.70
2023-02-09T06:04:28.346Z,56.55
2023-02-09T06:06:33.477Z,56.85
2023-02-09T06:08:36.043Z,58.85
2023-02-09T06:10:38.644Z,60.08
2023-02-09T06:12:41.466Z,63.58
2023-02-09T06:14:44.042Z,59.00
2023-02-09T06:16:47.137Z,58.88
2023-02-09T06:18:49.758Z,70.72
2023-02-09T06:20:53.875Z,66.47
2023-02-09T06:22:57.991Z,66.32
2023-02-09T06:25:00.659Z,59.63
2023-02-09T06:27:03.201Z,60.05
2023-02-09T06:29:05.903Z,54.65
2023-02-09T06:31:09.614Z,55.03
2023-02-09T06:33:12.214Z,56.60
2023-02-09T06:35:14.839Z,58.03
2023-02-09T06:37:17.421Z,56.28
2023-02-09T06:39:21.322Z,54.28
2023-02-09T06:41:23.916Z,52.08
2023-02-09T06:43:26.523Z,53.00
2023-02-09T06:45:29.170Z,53.22
2023-02-09T06:47:31.807Z,60.78
2023-02-09T06:49:34.388Z,56.03
2023-02-09T06:51:37.176Z,57.83
2023-02-09T06:53:41.089Z,54.70
2023-02-09T06:55:45.094Z,57.05
2023-02-09T06:57:47.689Z,68.75
2023-02-09T06:59:50.329Z,61.13
2023-02-09T07:01:54.976Z,64.20
2023-02-09T07:03:57.771Z,61.60
2023-02-09T07:06:05.075Z,61.88
2023-02-09T07:08:07.740Z,64.18
2023-02-09T07:10:11.541Z,59.92
2023-02-09T07:12:15.464Z,55.85
2023-02-09T07:14:18.062Z,67.15
2023-02-09T07:16:20.738Z,62.75
2023-02-09T07:18:23.448Z,55.88
2023-02-09T07:20:26.140Z,62.45
2023-02-09T07:22:28.788Z,67.65
2023-02-09T07:24:31.430Z,62.53
2023-02-09T07:26:34.092Z,60.92
2023-02-09T07:28:38.432Z,57.72
2023-02-09T07:30:42.069Z,55.45
2023-02-09T07:32:44.633Z,61.58
2023-02-09T07:34:47.209Z,59.53
2023-02-09T07:36:49.910Z,64.05
2023-02-09T07:38:52.693Z,57.53
2023-02-09T07:40:55.555Z,64.38
2023-02-09T07:42:58.107Z,58.45
2023-02-09T07:45:02.021Z,59.95
2023-02-09T07:47:04.672Z,67.00
2023-02-09T07:49:07.254Z,61.38
2023-02-09T07:51:14.212Z,64.25
2023-02-09T07:53:20.052Z,60.28
2023-02-09T07:55:22.750Z,58.55
2023-02-09T07:57:25.319Z,59.42
2023-02-09T07:59:27.954Z,64.80
2023-02-09T08:01:31.954Z,63.45
2023-02-09T08:03:36.502Z,60.90
2023-02-09T08:05:44.697Z,67.00
2023-02-09T08:07:47.535Z,63.15
2023-02-09T08:09:52.911Z,62.05
2023-02-09T08:11:58.932Z,64.82
2023-02-09T08:14:05.868Z,61.90
2023-02-09T08:16:11.304Z,62.13
2023-02-09T08:18:19.162Z,63.90
2023-02-09T08:20:28.602Z,63.53
2023-02-09T08:22:35.076Z,66.82
2023-02-09T08:24:37.948Z,66.05
2023-02-09T08:26:41.026Z,64.10
2023-02-09T08:28:45.381Z,60.70
2023-02-09T08:30:50.282Z,65.15
2023-02-09T08:32:52.878Z,61.90
2023-02-09T08:34:56.758Z,60.55
2023-02-09T08:36:59.377Z,64.07
2023-02-09T08:39:03.148Z,62.50
2023-02-09T08:41:07.092Z,59.63
2023-02-09T08:43:09.659Z,64.03
2023-02-09T08:45:12.247Z,67.80
2023-02-09T08:47:14.794Z,69.20
2023-02-09T08:49:17.346Z,64.43
2023-02-09T08:51:21.522Z,63.20
2023-02-09T08:53:24.140Z,65.72
2023-02-09T08:55:26.720Z,61.00
2023-02-09T08:57:42.705Z,70.53
2023-02-09T08:59:46.316Z,65.78
2023-02-09T09:01:49.047Z,67.55
2023-02-09T09:03:54.115Z,70.57
2023-02-09T09:05:57.978Z,71.47
2023-02-09T09:08:01.966Z,70.28
2023-02-09T09:10:04.845Z,75.40
2023-02-09T09:12:07.442Z,71.38
2023-02-09T09:14:10.047Z,67.75
2023-02-09T09:16:15.541Z,75.68
2023-02-09T09:18:18.221Z,68.70
2023-02-09T09:20:20.864Z,71.90
2023-02-09T09:22:23.909Z,68.20
2023-02-09T09:24:29.004Z,70.50
2023-02-09T09:26:31.607Z,78.40
2023-02-09T09:28:34.216Z,67.07
2023-02-09T09:30:37.461Z,74.18
2023-02-09T09:32:40.078Z,66.00
2023-02-09T09:34:44.217Z,73.07
2023-02-09T09:36:46.785Z,73.60
2023-02-09T09:38:49.426Z,72.55
2023-02-09T09:40:53.772Z,68.03
2023-02-09T09:42:59.220Z,77.40
2023-02-09T09:45:02.581Z,68.97
2023-02-09T09:47:11.383Z,69.57
2023-02-09T09:49:24.803Z,70.13
2023-02-09T09:51:37.729Z,68.30
2023-02-09T09:53:43.275Z,79.10
2023-02-09T09:55:47.408Z,75.68
2023-02-09T09:57:53.781Z,69.57
2023-02-09T09:59:57.842Z,66.80
2023-02-09T10:02:04.316Z,68.47
2023-02-09T10:04:13.753Z,72.88
2023-02-09T10:06:18.747Z,66.82
2023-02-09T10:08:28.706Z,71.65
2023-02-09T10:10:41.987Z,75.55
2023-02-09T10:12:49.500Z,69.97
2023-02-09T10:14:53.440Z,75.93
2023-02-09T10:16:56.257Z,70.00
2023-02-09T10:19:01.001Z,70.93
2023-02-09T10:21:07.597Z,77.05
2023-02-09T10:23:17.364Z,75.82
2023-02-09T10:25:40.293Z,75.15
2023-02-09T10:27:47.209Z,67.47
2023-02-09T10:29:49.756Z,70.95
2023-02-09T10:32:00.736Z,73.05
2023-02-09T10:34:11.508Z,75.00
2023-02-09T10:36:25.823Z,71.75
2023-02-09T10:38:33.572Z,70.97
2023-02-09T10:40:41.417Z,72.95
2023-02-09T10:42:54.986Z,69.45
2023-02-09T10:45:04.779Z,71.55
2023-02-09T10:47:27.150Z,70.15
2023-02-09T10:49:32.261Z,67.68
2023-02-09T10:51:35.044Z,69.38
2023-02-09T10:53:40.360Z,66.20
2023-02-09T10:55:43.358Z,74.65
2023-02-09T10:57:46.063Z,69.57
2023-02-09T10:59:52.669Z,72.53
2023-02-09T11:01:58.336Z,69.88
2023-02-09T11:04:04.463Z,68.68
2023-02-09T11:06:15.142Z,66.18
2023-02-09T11:08:20.480Z,71.15
2023-02-09T11:10:23.386Z,66.95
2023-02-09T11:12:28.493Z,69.30
2023-02-09T11:14:31.210Z,69.47
2023-02-09T11:17:04.165Z,69.57
2023-02-09T11:19:22.332Z,69.00
2023-02-09T11:21:36.540Z,63.13
2023-02-09T11:23:46.279Z,65.47
2023-02-09T11:25:58.188Z,68.25
2023-02-09T11:28:19.543Z,70.30
2023-02-09T11:30:42.876Z,69.22
2023-02-09T11:32:52.390Z,64.80
2023-02-09T11:35:05.005Z,68.85
2023-02-09T11:37:22.564Z,64.63
2023-02-09T11:39:38.349Z,62.28
2023-02-09T11:42:04.281Z,60.95
2023-02-09T11:44:08.580Z,64.72
2023-02-09T11:46:15.706Z,71.28
2023-02-09T11:48:25.834Z,68.13
2023-02-09T11:50:36.627Z,69.55
2023-02-09T11:52:49.156Z,62.85
2023-02-09T11:54:57.620Z,63.58
2023-02-09T11:57:03.900Z,62.35
2023-02-09T11:59:11.564Z,66.43
2023-02-09T12:01:29.006Z,64.22
2023-02-09T12:03:31.580Z,68.20
2023-02-09T12:05:35.731Z,64.05
2023-02-09T12:07:44.644Z,73.05
2023-02-09T12:09:55.779Z,60.03
2023-02-09T12:12:11.546Z,66.85
2023-02-09T12:14:46.301Z,69.28
2023-02-09T12:16:58.059Z,61.20
2023-02-09T12:21:06.640Z,65.10
2023-02-09T12:23:19.642Z,62.38
2023-02-09T12:25:50.892Z,58.42
2023-02-09T12:28:14.202Z,65.60
2023-02-09T12:30:59.241Z,61.17
2023-02-09T12:33:17.387Z,57.55
2023-02-09T12:35:29.300Z,55.95
2023-02-09T12:37:33.264Z,54.20
2023-02-09T12:39:35.867Z,54.80
2023-02-09T12:42:26.961Z,57.60
2023-02-09T12:44:40.459Z,55.47
2023-02-09T12:46:53.431Z,50.47
2023-02-09T12:49:21.486Z,51.13
2023-02-09T12:51:56.029Z,55.15
2023-02-09T12:53:59.915Z,51.55
2023-02-09T12:56:23.143Z,51.60
2023-02-09T12:58:36.823Z,54.30
2023-02-09T13:00:52.680Z,54.15
2023-02-09T13:02:57.552Z,55.63
2023-02-09T13:05:05.231Z,58.05
2023-02-09T13:07:19.168Z,55.58
2023-02-09T13:09:29.003Z,52.75
2023-02-09T13:11:44.131Z,53.90
2023-02-09T13:13:50.597Z,56.22
2023-02-09T13:16:09.697Z,48.70
2023-02-09T13:18:21.205Z,52.13
2023-02-09T13:20:42.820Z,53.97
2023-02-09T13:22:58.156Z,45.08
2023-02-09T13:25:14.117Z,51.78
2023-02-09T13:27:22.800Z,55.17
2023-02-09T13:29:27.310Z,46.08
2023-02-09T13:31:36.893Z,49.20
2023-02-09T13:33:50.208Z,48.47
2023-02-09T13:36:07.153Z,43.20
2023-02-09T13:38:17.172Z,46.63
2023-02-09T13:40:25.168Z,42.90
2023-02-09T13:42:30.441Z,45.70
2023-02-09T13:44:34.862Z,46.42
2023-02-09T13:46:39.388Z,41.28
2023-02-09T13:48:41.996Z,46.22
2023-02-09T13:50:48.587Z,48.95
2023-02-09T13:52:51.823Z,40.83
2023-02-09T13:54:54.912Z,47.38
2023-02-09T13:57:01.676Z,46.53
2023-02-09T13:59:04.917Z,44.65
2023-02-09T14:01:10.117Z,42.58
2023-02-09T14:03:17.528Z,48.22
2023-02-09T14:05:29.730Z,43.88
2023-02-09T14:07:36.522Z,44.22
2023-02-09T14:09:44.376Z,46.38
2023-02-09T14:11:52.958Z,44.70
2023-02-09T14:14:02.294Z,44.67
2023-02-09T14:16:06.808Z,50.33
2023-02-09T14:18:31.503Z,46.92
2023-02-09T14:20:34.128Z,42.00
2023-02-09T14:22:38.667Z,45.08
2023-02-09T14:24:43.807Z,44.17
2023-02-09T14:26:50.064Z,39.55
2023-02-09T14:29:04.491Z,52.72
2023-02-09T14:31:19.714Z,41.40
2023-02-09T14:33:25.204Z,44.53
2023-02-09T14:35:30.229Z,44.45
2023-02-09T14:37:32.777Z,40.13
2023-02-09T14:39:35.333Z,44.83
2023-02-09T14:41:38.058Z,44.60
2023-02-09T14:43:40.636Z,40.75
2023-02-09T14:45:46.064Z,38.03
2023-02-09T14:47:50.125Z,38.92
2023-02-09T14:49:52.679Z,36.60
2023-02-09T14:52:06.185Z,45.53
2023-02-09T14:54:19.762Z,41.25
2023-02-09T14:56:28.459Z,43.60
2023-02-09T14:58:33.478Z,43.03
2023-02-09T15:00:36.047Z,44.42
2023-02-09T15:02:38.783Z,39.53
2023-02-09T15:04:42.715Z,37.30
2023-02-09T15:06:48.039Z,47.08
2023-02-09T15:08:50.598Z,40.80
2023-02-09T15:10:56.020Z,48.15
2023-02-09T15:12:59.502Z,41.95
2023-02-09T15:15:02.802Z,40.88
2023-02-09T15:17:13.226Z,44.78
2023-02-09T15:19:20.108Z,42.72
2023-02-09T15:21:23.996Z,37.42
2023-02-09T15:23:26.651Z,42.92
2023-02-09T15:25:30.203Z,37.83
2023-02-09T15:27:35.426Z,36.50
2023-02-09T15:29:37.985Z,38.38
2023-02-09T15:31:41.828Z,41.33
2023-02-09T15:33:45.056Z,35.67
2023-02-09T15:35:48.370Z,37.90
2023-02-09T15:37:54.544Z,39.97
2023-02-09T15:40:00.526Z,37.30
2023-02-09T15:42:20.574Z,46.38
2023-02-09T15:44:40.648Z,42.00
2023-02-09T15:47:02.681Z,42.33
2023-02-09T15:49:07.505Z,44.55
2023-02-09T15:51:10.781Z,40.63
2023-02-09T15:53:18.690Z,40.38
2023-02-09T15:55:23.085Z,48.40
2023-02-09T15:57:26.264Z,46.95
2023-02-09T15:59:29.098Z,43.67
2023-02-09T16:01:33.805Z,44.22
2023-02-09T16:03:36.521Z,47.47
2023-02-09T16:05:39.086Z,47.78
2023-02-09T16:07:41.770Z,47.10
2023-02-09T16:09:45.719Z,49.88
2023-02-09T16:11:48.442Z,45.05
2023-02-09T16:13:51.881Z,49.78
2023-02-09T16:15:58.274Z,44.90
2023-02-09T16:18:05.283Z,48.70
2023-02-09T16:20:11.570Z,45.83
2023-02-09T16:22:14.471Z,45.40
2023-02-09T16:24:22.526Z,49.03
2023-02-09T16:26:28.390Z,48.17
2023-02-09T16:28:31.117Z,51.55
2023-02-09T16:30:37.625Z,50.10
2023-02-09T16:32:40.196Z,50.67
2023-02-09T16:34:42.762Z,48.50
2023-02-09T16:36:47.689Z,51.92
2023-02-09T16:38:51.525Z,49.70
2023-02-09T16:40:56.034Z,51.08
2023-02-09T16:43:02.058Z,50.15
2023-02-09T16:45:05.809Z,51.95
2023-02-09T16:47:15.175Z,50.65
2023-02-09T16:49:31.879Z,50.70
2023-02-09T16:51:35.150Z,53.25
2023-02-09T16:53:40.665Z,54.53
2023-02-09T16:55:43.482Z,51.97
2023-02-09T16:57:46.142Z,53.47
2023-02-09T16:59:50.037Z,51.15
2023-02-09T17:01:52.669Z,53.17
2023-02-09T17:03:57.125Z,56.22
2023-02-09T17:06:01.442Z,51.47
2023-02-09T17:08:07.785Z,47.85
2023-02-09T17:10:21.121Z,47.55
2023-02-09T17:12:24.144Z,55.65
2023-02-09T17:14:26.750Z,56.42
2023-02-09T17:16:33.765Z,55.53
2023-02-09T17:18:41.375Z,60.28
2023-02-09T17:20:47.070Z,50.22
2023-02-09T17:22:51.707Z,55.63
2023-02-09T17:24:54.350Z,56.67
2023-02-09T17:26:56.903Z,52.72
2023-02-09T17:28:59.554Z,60.95
2023-02-09T17:31:04.452Z,84.57
2023-02-09T17:33:16.285Z,75.15
2023-02-09T17:37:44.039Z,60.40
2023-02-09T17:39:46.638Z,74.07
2023-02-09T17:41:50.001Z,65.63
2023-02-09T17:43:53.722Z,77.25
2023-02-09T17:45:56.679Z,67.30
2023-02-09T17:47:59.455Z,82.07
2023-02-09T17:50:03.361Z,64.05
2023-02-09T17:52:06.386Z,64.53
2023-02-09T17:54:14.038Z,75.20
2023-02-09T17:56:16.993Z,77.80
2023-02-09T17:58:20.185Z,99.22
2023-02-09T18:00:23.095Z,102.78
2023-02-09T18:02:25.726Z,106.22
2023-02-09T18:04:28.710Z,125.45
2023-02-09T18:06:36.070Z,82.50
2023-02-09T18:08:38.616Z,69.10
2023-02-09T18:10:41.189Z,65.95
2023-02-09T18:12:44.142Z,72.35
2023-02-09T18:14:46.741Z,63.95
2023-02-09T18:16:49.891Z,59.85
2023-02-09T18:18:52.462Z,75.88
2023-02-09T18:20:55.250Z,62.47
2023-02-09T18:22:59.138Z,63.50
2023-02-09T18:25:01.697Z,74.10
2023-02-09T18:27:04.675Z,69.70
2023-02-09T18:29:07.238Z,65.88
2023-02-09T18:31:15.276Z,67.70
2023-02-09T18:33:20.902Z,69.25
2023-02-09T18:35:25.701Z,70.30
2023-02-09T18:37:28.246Z,71.20
2023-02-09T18:39:34.480Z,70.32
2023-02-09T18:41:37.216Z,65.35
2023-02-09T18:43:40.204Z,64.45
2023-02-09T18:45:42.817Z,58.60
2023-02-09T18:47:46.498Z,69.10
2023-02-09T18:49:49.074Z,64.35
2023-02-09T18:51:52.107Z,60.67
2023-02-09T18:53:54.697Z,61.90
2023-02-09T18:55:58.621Z,66.55
2023-02-09T18:58:04.593Z,67.03
2023-02-09T19:00:08.915Z,69.45
2023-02-09T19:02:12.400Z,66.75
2023-02-09T19:04:14.993Z,70.32
2023-02-09T19:06:17.605Z,69.63
2023-02-09T19:08:20.190Z,77.05
2023-02-09T19:10:23.914Z,65.78
2023-02-09T19:12:28.417Z,67.25
2023-02-09T19:14:39.882Z,64.10
2023-02-09T19:16:42.832Z,66.72
2023-02-09T19:18:46.356Z,82.97
2023-02-09T19:20:49.016Z,72.03
2023-02-09T19:22:52.286Z,72.95
2023-02-09T19:24:56.731Z,71.60
2023-02-09T19:26:59.326Z,65.60
2023-02-09T19:29:03.231Z,71.82
2023-02-09T19:31:11.672Z,69.13
2023-02-09T19:33:14.397Z,64.40
2023-02-09T19:35:17.960Z,70.07
2023-02-09T19:37:21.796Z,66.05
2023-02-09T19:39:25.458Z,75.57
2023-02-09T19:41:28.243Z,76.05
2023-02-09T19:43:30.811Z,66.25
2023-02-09T19:45:37.465Z,69.70
2023-02-09T19:47:40.333Z,72.82
2023-02-09T19:49:42.932Z,70.35
2023-02-09T19:51:45.558Z,75.22
2023-02-09T19:53:48.191Z,73.45
2023-02-09T19:55:51.318Z,75.45
2023-02-09T19:57:53.890Z,74.80
2023-02-09T19:59:56.597Z,74.20
2023-02-09T20:02:00.545Z,77.15
2023-02-09T20:04:03.127Z,83.60
2023-02-09T20:06:08.575Z,78.32
2023-02-09T20:08:14.336Z,75.78
2023-02-09T20:10:16.929Z,78.80
2023-02-09T20:12:21.510Z,77.47
2023-02-09T20:14:24.664Z,70.47
2023-02-09T20:16:28.339Z,76.03
2023-02-09T20:18:32.301Z,71.13
2023-02-09T20:20:34.894Z,64.60
2023-02-09T20:22:37.640Z,77.78
2023-02-09T20:24:40.375Z,72.68
2023-02-09T20:26:44.327Z,72.45
2023-02-09T20:28:46.867Z,73.03
2023-02-09T20:30:49.588Z,74.55
2023-02-09T20:32:52.212Z,73.07
2023-02-09T20:34:56.180Z,80.68
2023-02-09T20:36:58.846Z,85.00
2023-02-09T20:39:01.407Z,84.78
2023-02-09T20:41:04.067Z,87.60
2023-02-09T20:43:24.360Z,75.88
2023-02-09T20:45:44.591Z,79.35
2023-02-09T20:47:47.244Z,78.60
2023-02-09T20:49:50.044Z,70.95
2023-02-09T20:51:54.004Z,81.22
2023-02-09T20:53:56.590Z,81.40
2023-02-09T20:55:59.369Z,81.35
2023-02-09T20:58:01.906Z,69.82
2023-02-09T21:00:09.075Z,75.90
2023-02-09T21:02:12.983Z,77.13
2023-02-09T21:04:15.584Z,76.43
2023-02-09T21:06:18.476Z,78.63
2023-02-09T21:08:22.908Z,77.88
2023-02-09T21:10:25.842Z,77.32
2023-02-09T21:12:28.423Z,68.60
2023-02-09T21:14:41.837Z,70.35
2023-02-09T21:16:45.511Z,70.30
2023-02-09T21:18:48.109Z,66.78
2023-02-09T21:20:50.856Z,69.25
2023-02-09T21:22:53.590Z,75.07
2023-02-09T21:24:57.488Z,75.60
2023-02-09T21:27:00.629Z,74.45
2023-02-09T21:29:03.172Z,69.75
2023-02-09T21:31:10.774Z,67.68
2023-02-09T21:33:13.286Z,70.03
2023-02-09T21:35:16.619Z,64.72
2023-02-09T21:37:19.723Z,69.25
2023-02-09T21:39:22.526Z,66.60
2023-02-09T21:41:45.160Z,62.83
2023-02-09T21:43:48.259Z,64.10
2023-02-09T21:45:50.877Z,67.18
2023-02-09T21:47:53.522Z,73.60
2023-02-09T21:49:56.367Z,67.00
2023-02-09T21:51:58.963Z,65.35
2023-02-09T21:54:01.660Z,69.47
2023-02-09T21:56:07.234Z,66.05
2023-02-09T21:58:11.108Z,61.85
2023-02-09T22:00:15.025Z,63.40
2023-02-09T22:02:19.352Z,61.17
2023-02-09T22:04:22.108Z,65.85
2023-02-09T22:06:25.292Z,66.88
2023-02-09T22:08:28.944Z,67.72
2023-02-09T22:10:31.489Z,70.22
2023-02-09T22:12:36.324Z,66.38
2023-02-09T22:14:40.262Z,66.93
2023-02-09T22:16:43.053Z,64.40
2023-02-09T22:18:45.634Z,72.95
2023-02-09T22:20:48.540Z,65.72
2023-02-09T22:22:51.227Z,61.63
2023-02-09T22:24:53.760Z,69.68
2023-02-09T22:26:56.311Z,70.82
2023-02-09T22:28:58.964Z,67.30
2023-02-09T22:31:07.576Z,67.30
2023-02-09T22:33:10.202Z,64.88
2023-02-09T22:35:12.730Z,63.97
2023-02-09T22:37:15.285Z,71.85
2023-02-09T22:39:17.821Z,67.20
2023-02-09T22:41:24.873Z,68.28
2023-02-09T22:43:27.834Z,69.63
2023-02-09T22:45:30.410Z,67.38
2023-02-09T22:47:35.028Z,70.85
2023-02-09T22:49:37.587Z,71.22
2023-02-09T22:51:40.214Z,62.50
2023-02-09T22:53:42.795Z,65.70
2023-02-09T22:55:48.269Z,67.43
2023-02-09T22:57:51.059Z,64.00
2023-02-09T22:59:53.665Z,62.13
2023-02-09T23:01:56.269Z,66.20
2023-02-09T23:04:00.330Z,66.57
2023-02-09T23:06:03.183Z,69.25
2023-02-09T23:08:06.198Z,66.30
2023-02-09T23:10:08.980Z,75.68
2023-02-09T23:12:11.551Z,66.75
2023-02-09T23:14:14.167Z,67.00
2023-02-09T23:16:19.322Z,71.13
2023-02-09T23:18:21.914Z,69.75
2023-02-09T23:20:25.808Z,59.97
2023-02-09T23:22:28.370Z,63.85
2023-02-09T23:24:30.886Z,67.75
2023-02-09T23:26:33.834Z,64.53
2023-02-09T23:28:36.479Z,67.07
2023-02-09T23:30:41.680Z,62.42
2023-02-09T23:32:44.219Z,65.57
2023-02-09T23:34:46.746Z,61.63
2023-02-09T23:36:50.900Z,65.75
2023-02-09T23:38:54.642Z,59.78
2023-02-09T23:40:57.171Z,70.28
2023-02-09T23:42:59.733Z,62.22
2023-02-09T23:45:02.276Z,59.28
2023-02-09T23:47:05.379Z,74.97
2023-02-09T23:49:07.939Z,60.92
2023-02-09T23:51:14.052Z,60.50
2023-02-09T23:53:17.946Z,61.95
2023-02-09T23:55:20.549Z,60.47
2023-02-09T23:57:23.566Z,59.90
2023-02-09T23:59:26.111Z,56.55
